createdAt,value
2019-03-05T00:01:15.237Z,4.88
2019-03-05T00:03:44.358Z,4.78
2019-03-05T00:06:13.588Z,4.69
2019-03-05T00:08:42.774Z,4.68
2019-03-05T00:11:11.764Z,4.56
2019-03-05T00:13:41.008Z,4.55
2019-03-05T00:16:10.647Z,4.29
2019-03-05T00:18:39.810Z,4.51
2019-03-05T00:21:08.987Z,4.35
2019-03-05T00:23:59.276Z,4.37
2019-03-05T00:26:33.737Z,4.40
2019-03-05T00:29:47.519Z,4.46
2019-03-05T00:32:16.485Z,4.39
2019-03-05T00:34:57.069Z,4.41
2019-03-05T00:37:33.603Z,4.28
2019-03-05T00:40:09.147Z,4.19
2019-03-05T00:42:48.997Z,4.27
2019-03-05T00:45:36.143Z,4.15
2019-03-05T00:50:33.807Z,4.08
2019-03-05T00:54:08.831Z,4.10
2019-03-05T00:56:47.673Z,4.18
2019-03-05T00:59:32.142Z,4.12
2019-03-05T01:02:15.457Z,4.06
2019-03-05T01:04:56.669Z,3.69
2019-03-05T01:07:25.836Z,3.86
2019-03-05T01:09:55.406Z,3.69
2019-03-05T01:12:24.656Z,3.76
2019-03-05T01:14:54.032Z,3.63
2019-03-05T01:17:23.187Z,3.52
2019-03-05T01:19:52.832Z,3.38
2019-03-05T01:22:22.047Z,3.39
2019-03-05T01:24:51.107Z,3.42
2019-03-05T01:27:20.695Z,3.42
2019-03-05T01:29:50.259Z,3.45
2019-03-05T01:32:53.792Z,3.51
2019-03-05T01:35:29.908Z,3.39
2019-03-05T01:37:59.126Z,3.19
2019-03-05T01:40:33.131Z,3.39
2019-03-05T01:43:01.947Z,3.36
2019-03-05T01:45:31.231Z,3.41
2019-03-05T01:48:00.537Z,3.37
2019-03-05T01:50:29.823Z,3.31
2019-03-05T01:52:59.304Z,3.28
2019-03-05T01:55:28.296Z,3.35
2019-03-05T01:57:57.532Z,3.26
2019-03-05T02:00:26.812Z,3.35
2019-03-05T02:02:55.800Z,3.37
2019-03-05T02:05:25.582Z,3.34
2019-03-05T02:07:55.619Z,3.24
2019-03-05T02:10:24.448Z,3.29
2019-03-05T02:12:53.436Z,3.23
2019-03-05T02:15:23.082Z,3.37
2019-03-05T02:17:52.163Z,3.40
2019-03-05T02:20:23.243Z,3.41
2019-03-05T02:23:05.586Z,3.23
2019-03-05T02:25:48.342Z,3.26
2019-03-05T02:29:33.186Z,3.28
2019-03-05T02:32:12.906Z,3.45
2019-03-05T02:36:05.381Z,3.31
2019-03-05T02:38:42.113Z,3.29
2019-03-05T02:42:23.545Z,3.21
2019-03-05T02:45:19.192Z,3.13
2019-03-05T02:50:03.626Z,2.94
2019-03-05T02:52:49.212Z,2.94
2019-03-05T02:56:34.188Z,2.88
2019-03-05T02:59:02.022Z,2.76
2019-03-05T03:01:44.150Z,2.59
2019-03-05T03:04:15.432Z,2.59
2019-03-05T03:06:44.476Z,2.59
2019-03-05T03:10:19.160Z,2.66
2019-03-05T03:12:48.129Z,2.37
2019-03-05T03:15:18.179Z,2.38
2019-03-05T03:17:47.543Z,2.43
2019-03-05T03:20:18.160Z,2.44
2019-03-05T03:22:47.042Z,2.45
2019-03-05T03:25:19.053Z,2.49
2019-03-05T03:27:48.150Z,2.47
2019-03-05T03:30:18.766Z,2.22
2019-03-05T03:32:47.860Z,2.33
2019-03-05T03:35:17.065Z,2.33
2019-03-05T03:37:46.131Z,2.35
2019-03-05T03:40:22.453Z,2.20
2019-03-05T03:42:52.121Z,2.31
2019-03-05T03:45:23.692Z,2.31
2019-03-05T03:47:53.287Z,2.13
2019-03-05T03:50:22.424Z,2.17
2019-03-05T03:52:51.422Z,2.13
2019-03-05T03:55:20.650Z,2.25
2019-03-05T03:57:49.736Z,2.28
2019-03-05T04:00:23.058Z,2.23
2019-03-05T04:02:52.275Z,2.23
2019-03-05T04:05:21.458Z,2.25
2019-03-05T04:07:50.736Z,2.13
2019-03-05T04:10:20.081Z,2.17
2019-03-05T04:12:49.143Z,2.16
2019-03-05T04:15:19.750Z,2.22
2019-03-05T04:17:49.065Z,2.09
2019-03-05T04:20:23.556Z,1.90
2019-03-05T04:22:52.905Z,1.86
2019-03-05T04:25:22.007Z,1.74
2019-03-05T04:27:50.996Z,1.75
2019-03-05T04:30:20.278Z,1.78
2019-03-05T04:32:49.384Z,1.87
2019-03-05T04:35:18.443Z,1.87
2019-03-05T04:37:47.366Z,1.86
2019-03-05T04:40:17.003Z,1.97
2019-03-05T04:42:46.018Z,1.97
2019-03-05T04:45:31.781Z,2.09
2019-03-05T04:48:00.788Z,2.06
2019-03-05T04:50:37.303Z,2.01
2019-03-05T04:53:06.597Z,2.03
2019-03-05T04:55:35.835Z,2.08
2019-03-05T04:58:04.940Z,1.92
2019-03-05T05:00:35.053Z,2.11
2019-03-05T05:03:04.162Z,2.06
2019-03-05T05:05:33.672Z,2.13
2019-03-05T05:08:03.428Z,2.03
2019-03-05T05:10:32.830Z,2.07
2019-03-05T05:13:01.792Z,1.95
2019-03-05T05:15:32.784Z,1.93
2019-03-05T05:18:01.831Z,1.96
2019-03-05T05:20:31.121Z,2.00
2019-03-05T05:23:00.107Z,1.87
2019-03-05T05:25:29.264Z,1.85
2019-03-05T05:27:58.379Z,1.77
2019-03-05T05:30:30.330Z,1.73
2019-03-05T05:32:59.461Z,1.69
2019-03-05T05:35:28.662Z,1.65
2019-03-05T05:37:57.690Z,1.77
2019-03-05T05:40:29.624Z,1.86
2019-03-05T05:42:58.859Z,2.06
2019-03-05T05:45:32.549Z,2.03
2019-03-05T05:48:02.791Z,2.23
2019-03-05T05:50:32.068Z,2.31
2019-03-05T05:53:01.120Z,2.26
2019-03-05T05:55:30.206Z,2.28
2019-03-05T05:57:59.427Z,2.29
2019-03-05T06:00:28.701Z,2.38
2019-03-05T06:02:58.111Z,2.40
2019-03-05T06:05:27.757Z,2.45
2019-03-05T06:07:57.056Z,2.57
2019-03-05T06:10:26.259Z,2.73
2019-03-05T06:12:55.238Z,2.75
2019-03-05T06:15:24.242Z,2.84
2019-03-05T06:17:53.751Z,2.97
2019-03-05T06:20:23.160Z,3.07
2019-03-05T06:22:52.125Z,3.18
2019-03-05T06:25:21.404Z,3.54
2019-03-05T06:27:50.931Z,3.58
2019-03-05T06:30:20.531Z,3.70
2019-03-05T06:32:49.659Z,3.70
2019-03-05T06:35:18.926Z,3.94
2019-03-05T06:37:48.573Z,3.99
2019-03-05T06:40:18.226Z,3.81
2019-03-05T06:42:48.309Z,3.86
2019-03-05T06:45:17.888Z,3.97
2019-03-05T06:47:46.941Z,3.93
2019-03-05T06:50:16.570Z,4.09
2019-03-05T06:52:45.547Z,4.30
2019-03-05T06:55:14.931Z,4.36
2019-03-05T06:57:44.719Z,4.40
2019-03-05T07:00:16.800Z,4.59
2019-03-05T07:02:45.856Z,4.70
2019-03-05T07:06:24.592Z,4.90
2019-03-05T07:09:00.864Z,5.10
2019-03-05T07:11:40.295Z,5.29
2019-03-05T07:14:15.858Z,5.50
2019-03-05T07:16:55.163Z,5.77
2019-03-05T07:19:34.017Z,6.00
2019-03-05T07:22:21.155Z,6.12
2019-03-05T07:24:51.217Z,6.34
2019-03-05T07:27:30.968Z,6.30
2019-03-05T07:30:03.688Z,6.61
2019-03-05T07:32:33.514Z,6.59
2019-03-05T07:35:02.527Z,6.49
2019-03-05T07:37:31.592Z,6.65
2019-03-05T07:40:01.200Z,6.84
2019-03-05T07:42:30.385Z,6.95
2019-03-05T07:44:59.812Z,6.49
2019-03-05T07:47:28.922Z,7.41
2019-03-05T07:49:58.001Z,7.57
2019-03-05T07:52:27.255Z,7.76
2019-03-05T07:54:56.430Z,7.90
2019-03-05T07:57:25.418Z,8.28
2019-03-05T07:59:55.213Z,8.48
2019-03-05T08:02:24.325Z,8.55
2019-03-05T08:04:53.687Z,8.66
2019-03-05T08:07:23.595Z,8.86
2019-03-05T08:09:52.535Z,8.95
2019-03-05T08:12:35.759Z,9.05
2019-03-05T08:15:18.317Z,9.53
2019-03-05T08:17:47.268Z,9.85
2019-03-05T08:20:16.983Z,9.99
2019-03-05T08:22:45.973Z,10.11
2019-03-05T08:25:15.844Z,10.28
2019-03-05T08:27:44.880Z,10.23
2019-03-05T08:30:15.314Z,10.53
2019-03-05T08:32:44.300Z,10.81
2019-03-05T08:35:14.505Z,10.95
2019-03-05T08:37:44.643Z,11.41
2019-03-05T08:40:14.057Z,11.40
2019-03-05T08:42:44.159Z,11.60
2019-03-05T08:45:14.291Z,11.84
2019-03-05T08:47:43.473Z,11.94
2019-03-05T08:50:13.052Z,11.93
2019-03-05T08:52:42.403Z,11.82
2019-03-05T08:55:11.581Z,11.89
2019-03-05T08:57:42.299Z,11.91
2019-03-05T09:00:13.199Z,11.96
2019-03-05T09:02:48.635Z,12.02
2019-03-05T09:05:11.683Z,11.77
2019-03-05T09:07:40.849Z,11.77
2019-03-05T09:10:12.501Z,12.08
2019-03-05T09:12:42.447Z,12.21
2019-03-05T09:15:13.437Z,12.38
2019-03-05T09:17:42.441Z,12.74
2019-03-05T09:20:13.307Z,13.05
2019-03-05T09:22:42.582Z,13.10
2019-03-05T09:25:12.681Z,13.41
2019-03-05T09:27:42.771Z,13.67
2019-03-05T09:30:15.277Z,13.98
2019-03-05T09:32:44.777Z,14.11
2019-03-05T09:35:13.995Z,14.40
2019-03-05T09:37:43.303Z,14.36
2019-03-05T09:40:15.675Z,14.71
2019-03-05T09:42:45.464Z,14.80
2019-03-05T09:45:16.198Z,15.06
2019-03-05T09:47:45.907Z,15.47
2019-03-05T09:50:16.037Z,15.51
2019-03-05T09:52:54.525Z,15.41
2019-03-05T09:55:16.600Z,15.56
2019-03-05T09:57:45.751Z,15.94
2019-03-05T10:00:17.333Z,15.98
2019-03-05T10:02:46.433Z,15.61
2019-03-05T10:05:16.107Z,15.49
2019-03-05T10:07:45.411Z,15.63
2019-03-05T10:10:17.002Z,15.73
2019-03-05T10:12:45.956Z,15.66
2019-03-05T10:15:17.323Z,15.48
2019-03-05T10:17:46.364Z,15.18
2019-03-05T10:20:17.776Z,15.65
2019-03-05T10:22:47.324Z,15.63
2019-03-05T10:25:18.140Z,15.64
2019-03-05T10:27:47.316Z,16.09
2019-03-05T10:30:24.870Z,16.06
2019-03-05T10:32:47.706Z,16.14
2019-03-05T10:35:16.773Z,15.90
2019-03-05T10:37:45.853Z,15.93
2019-03-05T10:40:15.691Z,15.98
2019-03-05T10:42:44.896Z,15.90
2019-03-05T10:45:16.073Z,16.17
2019-03-05T10:47:44.941Z,16.53
2019-03-05T10:50:16.845Z,16.51
2019-03-05T10:52:45.917Z,16.40
2019-03-05T10:55:25.699Z,16.95
2019-03-05T10:57:45.119Z,17.38
2019-03-05T11:00:17.251Z,17.64
2019-03-05T11:02:47.050Z,17.32
2019-03-05T11:05:16.165Z,16.94
2019-03-05T11:07:45.631Z,17.11
2019-03-05T11:10:15.116Z,17.22
2019-03-05T11:12:45.316Z,17.08
2019-03-05T11:15:17.963Z,16.84
2019-03-05T11:17:47.678Z,16.75
2019-03-05T11:20:17.703Z,16.68
2019-03-05T11:22:46.848Z,16.40
2019-03-05T11:25:17.038Z,16.29
2019-03-05T11:27:46.216Z,16.07
2019-03-05T11:30:17.560Z,15.91
2019-03-05T11:32:46.706Z,15.70
2019-03-05T11:35:17.529Z,15.71
2019-03-05T11:37:46.512Z,15.47
2019-03-05T11:40:21.125Z,15.20
2019-03-05T11:42:45.107Z,15.22
2019-03-05T11:45:18.880Z,15.07
2019-03-05T11:47:48.004Z,14.92
2019-03-05T11:50:17.334Z,14.83
2019-03-05T11:52:46.423Z,14.74
2019-03-05T11:55:17.215Z,14.74
2019-03-05T11:57:46.919Z,14.80
2019-03-05T12:00:19.236Z,14.75
2019-03-05T12:02:48.275Z,14.76
2019-03-05T12:05:17.730Z,14.87
2019-03-05T12:07:46.689Z,14.78
2019-03-05T12:10:17.171Z,14.87
2019-03-05T12:12:46.223Z,14.78
2019-03-05T12:15:16.885Z,14.85
2019-03-05T12:17:45.929Z,14.83
2019-03-05T12:20:15.217Z,14.82
2019-03-05T12:22:44.803Z,14.96
2019-03-05T12:25:15.737Z,15.05
2019-03-05T12:27:45.332Z,15.05
2019-03-05T12:30:18.060Z,15.17
2019-03-05T12:32:47.643Z,15.28
2019-03-05T12:35:17.126Z,15.27
2019-03-05T12:37:46.289Z,15.15
2019-03-05T12:40:16.688Z,15.28
2019-03-05T12:42:45.834Z,15.39
2019-03-05T12:45:15.246Z,15.40
2019-03-05T12:47:45.042Z,15.23
2019-03-05T12:50:16.459Z,15.25
2019-03-05T12:52:45.889Z,15.29
2019-03-05T12:55:15.462Z,15.10
2019-03-05T12:57:45.161Z,15.03
2019-03-05T13:00:17.909Z,14.98
2019-03-05T13:02:46.941Z,15.00
2019-03-05T13:05:16.545Z,15.03
2019-03-05T13:07:45.307Z,15.02
2019-03-05T13:10:16.150Z,14.98
2019-03-05T13:12:45.354Z,14.97
2019-03-05T13:15:17.128Z,15.01
2019-03-05T13:17:47.157Z,15.06
2019-03-05T13:20:16.343Z,14.93
2019-03-05T13:22:46.361Z,14.72
2019-03-05T13:25:16.384Z,14.68
2019-03-05T13:27:45.848Z,14.64
2019-03-05T13:30:17.683Z,14.59
2019-03-05T13:32:46.617Z,14.59
2019-03-05T13:35:16.475Z,14.51
2019-03-05T13:37:46.674Z,14.43
2019-03-05T13:40:17.983Z,14.39
2019-03-05T13:42:47.261Z,14.29
2019-03-05T13:45:16.486Z,14.31
2019-03-05T13:47:56.719Z,14.32
2019-03-05T13:52:41.311Z,14.27
2019-03-05T13:58:25.663Z,14.25
2019-03-05T14:00:54.947Z,14.27
2019-03-05T14:03:29.860Z,14.20
2019-03-05T14:06:43.318Z,14.24
2019-03-05T14:09:17.713Z,14.25
2019-03-05T14:11:48.019Z,14.25
2019-03-05T14:14:22.955Z,14.37
2019-03-05T14:16:58.163Z,14.33
2019-03-05T14:19:28.098Z,14.28
2019-03-05T14:21:58.144Z,14.34
2019-03-05T14:24:27.405Z,14.19
2019-03-05T14:26:58.234Z,14.27
2019-03-05T14:29:29.274Z,14.14
2019-03-05T14:31:56.749Z,14.30
2019-03-05T14:34:25.988Z,14.14
2019-03-05T14:36:55.917Z,14.14
2019-03-05T14:39:28.231Z,14.32
2019-03-05T14:41:57.752Z,14.32
2019-03-05T14:44:26.766Z,14.17
2019-03-05T14:46:58.839Z,14.11
2019-03-05T14:49:28.721Z,14.03
2019-03-05T14:51:58.052Z,14.07
2019-03-05T14:54:27.547Z,14.02
2019-03-05T14:56:57.307Z,14.03
2019-03-05T14:59:26.799Z,14.04
2019-03-05T15:01:56.453Z,13.98
2019-03-05T15:04:26.417Z,13.98
2019-03-05T15:06:55.574Z,14.05
2019-03-05T15:09:24.742Z,13.98
2019-03-05T15:11:54.335Z,13.94
2019-03-05T15:14:23.595Z,13.91
2019-03-05T15:16:53.002Z,13.89
2019-03-05T15:19:22.631Z,13.88
2019-03-05T15:21:51.813Z,13.97
2019-03-05T15:24:21.029Z,13.89
2019-03-05T15:26:50.938Z,13.84
2019-03-05T15:29:20.829Z,13.83
2019-03-05T15:31:50.474Z,13.87
2019-03-05T15:34:19.805Z,13.91
2019-03-05T15:36:51.924Z,13.83
2019-03-05T15:39:18.181Z,13.84
2019-03-05T15:41:47.221Z,13.79
2019-03-05T15:44:16.735Z,13.74
2019-03-05T15:46:46.353Z,13.68
2019-03-05T15:49:15.470Z,13.75
2019-03-05T15:51:44.344Z,13.65
2019-03-05T15:54:13.540Z,13.86
2019-03-05T15:56:42.786Z,13.65
2019-03-05T15:59:11.878Z,13.64
2019-03-05T16:01:42.184Z,13.49
2019-03-05T16:04:11.343Z,13.55
2019-03-05T16:06:40.341Z,13.63
2019-03-05T16:09:17.756Z,13.64
2019-03-05T16:11:46.919Z,13.64
2019-03-05T16:14:16.408Z,13.51
2019-03-05T16:16:45.317Z,13.52
2019-03-05T16:19:16.545Z,13.40
2019-03-05T16:21:43.731Z,13.42
2019-03-05T16:24:12.963Z,13.44
2019-03-05T16:26:42.650Z,13.40
2019-03-05T16:29:11.727Z,13.35
2019-03-05T16:31:49.818Z,13.34
2019-03-05T16:34:23.316Z,13.26
2019-03-05T16:36:57.623Z,13.29
2019-03-05T16:40:05.136Z,13.20
2019-03-05T16:42:41.909Z,13.11
2019-03-05T16:45:22.896Z,13.08
2019-03-05T16:48:01.706Z,13.05
2019-03-05T16:50:36.650Z,13.02
2019-03-05T16:53:15.825Z,12.95
2019-03-05T16:56:55.138Z,12.90
2019-03-05T17:01:36.971Z,12.83
2019-03-05T17:04:12.576Z,16.61
2019-03-05T17:07:46.184Z,17.03
2019-03-05T17:10:20.060Z,18.32
2019-03-05T17:12:49.001Z,19.03
2019-03-05T17:15:18.278Z,21.39
2019-03-05T17:17:47.143Z,19.40
2019-03-05T17:20:16.844Z,19.48
2019-03-05T17:22:45.860Z,19.77
2019-03-05T17:25:16.119Z,20.84
2019-03-05T17:27:45.349Z,21.81
2019-03-05T17:30:15.548Z,19.04
2019-03-05T17:32:44.707Z,17.01
2019-03-05T17:35:13.893Z,16.13
2019-03-05T17:37:43.005Z,15.39
2019-03-05T17:40:12.211Z,14.89
2019-03-05T17:42:41.380Z,14.38
2019-03-05T17:45:13.442Z,14.06
2019-03-05T17:47:42.824Z,13.81
2019-03-05T17:50:12.212Z,13.48
2019-03-05T17:52:41.507Z,13.33
2019-03-05T17:55:12.813Z,13.05
2019-03-05T17:57:41.849Z,13.00
2019-03-05T18:00:12.788Z,12.85
2019-03-05T18:02:41.818Z,12.76
2019-03-05T18:05:10.979Z,12.52
2019-03-05T18:07:40.545Z,12.38
2019-03-05T18:10:10.058Z,12.25
2019-03-05T18:12:38.991Z,12.12
2019-03-05T18:15:08.980Z,12.12
2019-03-05T18:17:38.456Z,12.04
2019-03-05T18:20:09.239Z,11.98
2019-03-05T18:22:38.231Z,11.89
2019-03-05T18:25:08.003Z,11.76
2019-03-05T18:27:37.248Z,11.76
2019-03-05T18:30:09.074Z,11.66
2019-03-05T18:32:38.210Z,11.57
2019-03-05T18:35:07.741Z,11.51
2019-03-05T18:37:37.248Z,11.50
2019-03-05T18:40:06.931Z,11.46
2019-03-05T18:42:36.242Z,11.22
2019-03-05T18:45:07.500Z,11.33
2019-03-05T18:47:36.432Z,11.34
2019-03-05T18:50:05.649Z,11.22
2019-03-05T18:52:34.604Z,11.15
2019-03-05T18:55:03.640Z,11.11
2019-03-05T18:57:32.837Z,11.07
2019-03-05T19:00:02.550Z,10.99
2019-03-05T19:02:32.180Z,11.02
2019-03-05T19:05:01.336Z,11.02
2019-03-05T19:07:31.134Z,11.03
2019-03-05T19:10:01.283Z,11.04
2019-03-05T19:12:30.200Z,11.05
2019-03-05T19:14:59.441Z,10.89
2019-03-05T19:17:28.533Z,10.86
2019-03-05T19:19:57.768Z,10.96
2019-03-05T19:22:26.877Z,10.98
2019-03-05T19:24:56.604Z,11.05
2019-03-05T19:27:26.284Z,10.98
2019-03-05T19:29:55.513Z,10.93
2019-03-05T19:32:24.883Z,10.92
2019-03-05T19:34:54.445Z,10.91
2019-03-05T19:37:23.421Z,10.78
2019-03-05T19:39:53.787Z,10.76
2019-03-05T19:42:22.979Z,10.70
2019-03-05T19:44:53.168Z,10.69
2019-03-05T19:47:23.529Z,10.60
2019-03-05T19:49:53.212Z,10.66
2019-03-05T19:52:22.187Z,10.70
2019-03-05T19:54:51.499Z,10.71
2019-03-05T19:57:20.503Z,10.54
2019-03-05T19:59:49.553Z,10.44
2019-03-05T20:02:19.652Z,10.42
2019-03-05T20:04:48.812Z,10.30
2019-03-05T20:07:18.012Z,10.34
2019-03-05T20:09:47.192Z,10.30
2019-03-05T20:12:16.470Z,10.25
2019-03-05T20:14:46.187Z,10.32
2019-03-05T20:17:15.142Z,10.24
2019-03-05T20:19:43.995Z,10.22
2019-03-05T20:22:12.848Z,10.29
2019-03-05T20:24:42.539Z,10.25
2019-03-05T20:27:16.066Z,10.30
2019-03-05T20:29:40.683Z,10.27
2019-03-05T20:32:09.931Z,10.15
2019-03-05T20:34:39.076Z,10.15
2019-03-05T20:37:08.183Z,10.10
2019-03-05T20:39:37.292Z,10.21
2019-03-05T20:42:06.983Z,10.09
2019-03-05T20:44:36.096Z,10.11
2019-03-05T20:47:05.338Z,10.07
2019-03-05T20:49:34.827Z,10.05
2019-03-05T20:52:05.640Z,10.02
2019-03-05T20:54:34.637Z,10.03
2019-03-05T20:57:03.979Z,10.00
2019-03-05T20:59:33.209Z,9.89
2019-03-05T21:02:03.079Z,9.86
2019-03-05T21:04:32.472Z,9.89
2019-03-05T21:07:01.845Z,9.88
2019-03-05T21:09:31.354Z,9.87
2019-03-05T21:12:00.493Z,9.80
2019-03-05T21:14:29.447Z,9.63
2019-03-05T21:16:58.686Z,9.55
2019-03-05T21:19:27.716Z,9.32
2019-03-05T21:21:56.725Z,9.06
2019-03-05T21:24:26.010Z,8.43
2019-03-05T21:26:55.195Z,8.16
2019-03-05T21:29:25.488Z,8.08
2019-03-05T21:31:54.692Z,8.02
2019-03-05T21:34:23.873Z,7.97
2019-03-05T21:36:52.842Z,7.93
2019-03-05T21:39:22.134Z,7.90
2019-03-05T21:41:51.252Z,7.80
2019-03-05T21:44:20.633Z,7.68
2019-03-05T21:46:49.877Z,7.73
2019-03-05T21:49:19.040Z,7.76
2019-03-05T21:51:48.094Z,7.69
2019-03-05T21:54:17.233Z,7.61
2019-03-05T21:56:46.491Z,7.61
2019-03-05T21:59:16.243Z,7.68
2019-03-05T22:01:46.222Z,7.70
2019-03-05T22:04:15.359Z,7.81
2019-03-05T22:06:44.970Z,7.82
2019-03-05T22:09:14.894Z,7.82
2019-03-05T22:11:44.621Z,7.86
2019-03-05T22:14:14.194Z,7.82
2019-03-05T22:16:43.995Z,7.77
2019-03-05T22:19:13.323Z,7.79
2019-03-05T22:21:42.682Z,7.85
2019-03-05T22:24:11.766Z,7.88
2019-03-05T22:26:40.600Z,7.80
2019-03-05T22:29:09.633Z,7.81
2019-03-05T22:31:38.663Z,7.78
2019-03-05T22:34:08.724Z,7.75
2019-03-05T22:36:37.748Z,7.72
2019-03-05T22:39:07.335Z,7.76
2019-03-05T22:41:38.351Z,7.79
2019-03-05T22:44:06.051Z,7.81
2019-03-05T22:46:36.027Z,7.84
2019-03-05T22:49:05.191Z,7.83
2019-03-05T22:51:34.368Z,7.79
2019-03-05T22:54:03.840Z,7.70
2019-03-05T22:56:32.891Z,7.67
2019-03-05T22:59:02.688Z,7.64
2019-03-05T23:01:37.045Z,7.68
2019-03-05T23:04:06.373Z,7.68
2019-03-05T23:06:35.553Z,7.69
2019-03-05T23:09:05.714Z,7.77
2019-03-05T23:11:34.955Z,7.73
2019-03-05T23:14:04.088Z,7.72
2019-03-05T23:16:33.211Z,7.69
2019-03-05T23:19:03.229Z,7.61
2019-03-05T23:21:32.468Z,7.65
2019-03-05T23:24:01.521Z,7.58
2019-03-05T23:26:31.448Z,7.50
2019-03-05T23:29:00.679Z,7.47
2019-03-05T23:31:29.831Z,7.57
2019-03-05T23:33:59.465Z,7.53
2019-03-05T23:36:28.451Z,7.51
2019-03-05T23:38:57.625Z,7.51
2019-03-05T23:41:27.189Z,7.53
2019-03-05T23:43:56.776Z,7.44
2019-03-05T23:46:26.199Z,7.49
2019-03-05T23:48:55.111Z,7.39
2019-03-05T23:51:24.400Z,7.36
2019-03-05T23:53:53.688Z,7.23
2019-03-05T23:56:23.063Z,7.21
2019-03-05T23:58:52.112Z,7.21
